Time;durP1;ratioP1;P1;durP2;ratioP2;P2;SDS_P1;SDS_P2;PMS_P1;PMS_P2;Temp;Humidity;BMP_temperature;BMP_pressure;BME280_temperature;BME280_humidity;BME280_pressure;Samples;Min_cycle;Max_cycle;Signal;HPM_P1;HPM_P2
2022/07/24 00:01:53;;;;;;;14.32;11.27;;;18.90;96.50;;;;;;5115519;27;20027;-68
2022/07/24 00:04:19;;;;;;;13.88;10.43;;;18.80;96.60;;;;;;5118615;27;20035;-68
2022/07/24 00:06:45;;;;;;;14.55;11.57;;;18.70;96.60;;;;;;5115973;27;20030;-67
2022/07/24 00:09:10;;;;;;;14.57;12.25;;;18.70;96.60;;;;;;5116275;27;20035;-66
2022/07/24 00:11:36;;;;;;;13.85;11.80;;;18.70;96.60;;;;;;5112388;27;20416;-66
2022/07/24 00:14:02;;;;;;;16.45;11.73;;;18.60;96.60;;;;;;5114570;27;20047;-66
2022/07/24 00:16:28;;;;;;;14.18;11.45;;;18.60;96.70;;;;;;5093485;27;20207;-67
2022/07/24 00:18:54;;;;;;;13.88;12.20;;;18.50;96.80;;;;;;5102305;27;20096;-68
2022/07/24 00:21:19;;;;;;;15.43;11.75;;;18.50;97.00;;;;;;5113558;27;20036;-68
2022/07/24 00:23:45;;;;;;;13.57;11.70;;;18.50;97.00;;;;;;5114342;27;20023;-68
2022/07/24 00:26:11;;;;;;;14.45;11.73;;;18.50;97.00;;;;;;5118192;27;20024;-68
2022/07/24 00:28:40;;;;;;;17.88;12.02;;;18.50;97.00;;;;;;5117961;27;20034;-68
2022/07/24 00:31:09;;;;;;;13.70;11.45;;;18.50;96.80;;;;;;5107363;27;20088;-68
2022/07/24 00:33:34;;;;;;;17.15;11.93;;;18.60;96.80;;;;;;5116148;27;20023;-68
2022/07/24 00:36:00;;;;;;;14.70;10.82;;;18.70;96.70;;;;;;5116459;27;20321;-68
2022/07/24 00:38:26;;;;;;;14.20;12.13;;;18.70;96.70;;;;;;5116096;28;20020;-68
2022/07/24 00:40:52;;;;;;;19.17;11.25;;;18.70;96.70;;;;;;5110871;28;20081;-68
2022/07/24 00:43:17;;;;;;;12.77;11.15;;;18.70;96.80;;;;;;5114882;27;20474;-68
2022/07/24 00:45:44;;;;;;;14.80;11.85;;;18.60;96.80;;;;;;5112646;27;20038;-68
2022/07/24 00:48:10;;;;;;;13.98;11.95;;;18.50;96.80;;;;;;5120282;27;20046;-67
2022/07/24 00:50:39;;;;;;;15.05;12.07;;;18.40;97.00;;;;;;5111799;27;20288;-68
2022/07/24 00:53:05;;;;;;;15.85;12.45;;;18.40;97.00;;;;;;5115401;27;20080;-67
2022/07/24 00:55:33;;;;;;;17.60;12.23;;;18.20;97.00;;;;;;5115270;27;20028;-67
2022/07/24 00:57:59;;;;;;;17.52;12.75;;;18.10;97.00;;;;;;5113609;28;20035;-68
2022/07/24 01:00:25;;;;;;;13.85;12.13;;;18.10;97.10;;;;;;5106307;28;20031;-68
2022/07/24 01:02:53;;;;;;;13.88;11.90;;;18.00;97.10;;;;;;5114754;28;20035;-68
2022/07/24 01:05:19;;;;;;;17.30;12.45;;;17.90;97.10;;;;;;5113163;27;20042;-68
2022/07/24 01:07:48;;;;;;;15.27;12.52;;;17.80;97.20;;;;;;5114904;28;20028;-67
2022/07/24 01:10:14;;;;;;;14.77;12.38;;;17.70;97.00;;;;;;5107074;27;20024;-68
2022/07/24 01:12:40;;;;;;;16.08;12.73;;;17.60;96.90;;;;;;5113704;28;20064;-68
2022/07/24 01:15:08;;;;;;;13.90;11.82;;;17.60;97.10;;;;;;5112441;28;20032;-67
2022/07/24 01:17:35;;;;;;;15.40;12.02;;;17.60;97.30;;;;;;5115050;28;20420;-67
2022/07/24 01:20:02;;;;;;;17.08;12.32;;;17.60;97.40;;;;;;5113461;27;20031;-68
2022/07/24 01:22:28;;;;;;;13.68;11.75;;;17.60;97.20;;;;;;5113899;28;20023;-67
2022/07/24 01:25:01;;;;;;;15.82;13.10;;;17.50;97.20;;;;;;5113211;28;20758;-68
2022/07/24 01:27:27;;;;;;;16.63;13.15;;;17.40;97.10;;;;;;5117462;28;20083;-67
2022/07/24 01:29:53;;;;;;;15.63;12.60;;;17.50;97.30;;;;;;5110950;28;20405;-68
2022/07/24 01:32:21;;;;;;;15.27;12.32;;;17.50;97.40;;;;;;5112845;28;20106;-67
2022/07/24 01:34:47;;;;;;;15.20;12.40;;;17.50;97.30;;;;;;5117739;27;20020;-67
2022/07/24 01:37:15;;;;;;;17.00;12.90;;;17.50;97.30;;;;;;5117762;27;20042;-67
2022/07/24 01:39:41;;;;;;;15.23;12.27;;;17.40;97.30;;;;;;5116187;28;20032;-68
2022/07/24 01:42:07;;;;;;;16.45;13.18;;;17.40;97.30;;;;;;5118665;27;20055;-68
2022/07/24 01:44:32;;;;;;;13.90;12.43;;;17.30;97.20;;;;;;5115741;27;20027;-67
2022/07/24 01:46:58;;;;;;;13.48;11.93;;;17.20;97.20;;;;;;5113295;27;20056;-69
2022/07/24 01:49:24;;;;;;;14.13;12.30;;;17.20;97.30;;;;;;5118495;27;20019;-68
2022/07/24 01:51:49;;;;;;;14.57;11.70;;;17.30;97.50;;;;;;5118386;27;20027;-68
2022/07/24 01:54:15;;;;;;;14.55;11.23;;;17.30;97.60;;;;;;5121109;27;20027;-67
2022/07/24 01:56:41;;;;;;;15.27;12.00;;;17.40;97.50;;;;;;5121883;27;20023;-69
2022/07/24 01:59:06;;;;;;;16.27;12.30;;;17.30;97.40;;;;;;5118322;27;20027;-68
2022/07/24 02:01:35;;;;;;;15.35;11.95;;;17.20;97.30;;;;;;5117868;27;20020;-68
2022/07/24 02:04:00;;;;;;;15.48;11.88;;;17.20;97.40;;;;;;5116868;27;20023;-68
2022/07/24 02:06:26;;;;;;;17.02;12.73;;;17.30;97.40;;;;;;5118959;27;20077;-68
2022/07/24 02:08:52;;;;;;;15.00;11.18;;;17.30;97.50;;;;;;5113005;27;20034;-67
2022/07/24 02:11:18;;;;;;;16.17;11.88;;;17.40;97.70;;;;;;5117284;27;20034;-68
2022/07/24 02:13:45;;;;;;;14.75;12.30;;;17.40;97.60;;;;;;5119346;27;20072;-68
2022/07/24 02:16:10;;;;;;;14.35;12.10;;;17.40;97.50;;;;;;5116930;27;20020;-67
2022/07/24 02:18:36;;;;;;;15.90;12.68;;;17.30;97.50;;;;;;5116036;27;20031;-68
2022/07/24 02:21:02;;;;;;;13.23;11.50;;;17.20;97.40;;;;;;5097121;27;20134;-68
2022/07/24 02:23:30;;;;;;;14.35;12.02;;;17.10;97.40;;;;;;5100027;27;20038;-68
2022/07/24 02:25:56;;;;;;;14.43;11.32;;;17.10;97.50;;;;;;5103307;27;20424;-69
2022/07/24 02:28:22;;;;;;;14.07;10.93;;;17.10;97.50;;;;;;5096023;27;20042;-68
2022/07/24 02:30:47;;;;;;;15.57;12.23;;;17.10;97.50;;;;;;5092879;27;20028;-68
2022/07/24 02:33:13;;;;;;;13.50;11.82;;;17.10;97.30;;;;;;5093722;27;20031;-67
2022/07/24 02:35:41;;;;;;;13.73;11.10;;;17.10;97.40;;;;;;5096216;27;20016;-67
2022/07/24 02:38:07;;;;;;;15.00;11.32;;;17.10;97.60;;;;;;5096262;27;20069;-68
2022/07/24 02:40:32;;;;;;;13.23;10.82;;;17.20;97.80;;;;;;5092495;27;20432;-68
2022/07/24 02:42:58;;;;;;;16.05;11.02;;;17.40;97.80;;;;;;5096147;27;20599;-67
2022/07/24 02:45:26;;;;;;;16.35;10.63;;;17.40;97.60;;;;;;5109580;27;20457;-67
2022/07/24 02:47:55;;;;;;;15.30;11.23;;;17.50;97.50;;;;;;5094402;27;20051;-67
2022/07/24 02:50:23;;;;;;;15.02;11.68;;;17.60;97.40;;;;;;5105266;27;20320;-67
2022/07/24 02:52:49;;;;;;;14.90;11.18;;;17.50;97.40;;;;;;5113783;27;20055;-68
2022/07/24 02:55:16;;;;;;;12.80;11.30;;;17.40;97.50;;;;;;5108529;27;20042;-67
2022/07/24 02:57:42;;;;;;;14.70;11.70;;;17.30;97.60;;;;;;5107451;27;20454;-68
2022/07/24 03:00:10;;;;;;;13.60;11.00;;;17.20;97.60;;;;;;5108957;27;20031;-67
2022/07/24 03:02:36;;;;;;;14.32;11.00;;;17.10;97.60;;;;;;5101433;27;20444;-66
2022/07/24 03:05:04;;;;;;;15.13;10.90;;;17.10;97.70;;;;;;5109276;27;20362;-66
2022/07/24 03:07:29;;;;;;;12.85;10.95;;;17.10;97.70;;;;;;5116244;28;20039;-66
2022/07/24 03:09:55;;;;;;;14.77;10.95;;;17.10;97.60;;;;;;5112343;27;20037;-66
2022/07/24 03:12:21;;;;;;;14.55;11.60;;;17.00;97.60;;;;;;5108316;27;20366;-66
2022/07/24 03:14:47;;;;;;;14.43;11.32;;;17.00;97.50;;;;;;5116244;27;20294;-68
2022/07/24 03:17:12;;;;;;;15.68;11.93;;;16.90;97.70;;;;;;5114587;27;20428;-68
2022/07/24 03:19:38;;;;;;;13.02;10.77;;;17.00;97.70;;;;;;5115720;28;20028;-68
2022/07/24 03:22:04;;;;;;;13.23;11.48;;;17.10;97.80;;;;;;5107775;27;20412;-68
2022/07/24 03:24:29;;;;;;;13.10;10.73;;;17.10;97.70;;;;;;5114174;27;20667;-68
2022/07/24 03:26:55;;;;;;;14.20;10.82;;;17.10;97.70;;;;;;5116357;27;20106;-68
2022/07/24 03:29:21;;;;;;;15.05;10.43;;;17.10;97.70;;;;;;5109322;28;20023;-68
2022/07/24 03:31:46;;;;;;;13.82;11.45;;;17.10;97.80;;;;;;5117271;27;20028;-67
2022/07/24 03:34:15;;;;;;;12.52;10.73;;;17.00;97.70;;;;;;5106153;27;20035;-68
2022/07/24 03:36:41;;;;;;;13.75;10.85;;;17.10;97.90;;;;;;5117682;27;20007;-68
2022/07/24 03:39:06;;;;;;;13.60;10.68;;;17.20;97.80;;;;;;5116982;27;20020;-68
2022/07/24 03:41:32;;;;;;;15.10;10.88;;;17.20;97.60;;;;;;5114024;27;20145;-67
2022/07/24 03:43:58;;;;;;;12.57;11.10;;;17.20;97.70;;;;;;5115709;28;20703;-68
2022/07/24 03:46:23;;;;;;;15.90;11.45;;;17.20;97.80;;;;;;5112405;27;20106;-67
2022/07/24 03:48:49;;;;;;;12.13;10.70;;;17.20;97.80;;;;;;5113541;28;20035;-68
2022/07/24 03:51:17;;;;;;;13.73;10.52;;;17.20;97.70;;;;;;5114685;27;20034;-68
2022/07/24 03:53:43;;;;;;;12.95;10.60;;;17.20;97.80;;;;;;5113713;28;20030;-68
2022/07/24 03:56:09;;;;;;;13.90;10.82;;;17.20;97.80;;;;;;5113961;27;20020;-68
2022/07/24 03:58:36;;;;;;;13.95;11.05;;;17.20;97.80;;;;;;5116786;28;20081;-68
2022/07/24 04:01:02;;;;;;;12.82;10.32;;;17.10;97.80;;;;;;5113935;27;20027;-67
2022/07/24 04:03:30;;;;;;;12.20;10.38;;;17.10;97.80;;;;;;5113372;27;20031;-67
2022/07/24 04:05:56;;;;;;;13.00;11.55;;;17.00;97.70;;;;;;5112823;27;20028;-67
2022/07/24 04:08:22;;;;;;;12.60;10.23;;;16.90;97.70;;;;;;5115208;27;20024;-67
2022/07/24 04:10:48;;;;;;;13.93;11.02;;;16.80;97.60;;;;;;5114427;27;20023;-68
2022/07/24 04:13:13;;;;;;;13.20;10.98;;;16.90;97.70;;;;;;5115778;27;20023;-67
2022/07/24 04:15:39;;;;;;;11.73;9.85;;;17.00;97.80;;;;;;5115354;27;20012;-67
2022/07/24 04:18:04;;;;;;;17.70;10.85;;;17.10;97.90;;;;;;5116052;27;20100;-68
2022/07/24 04:20:30;;;;;;;11.73;10.15;;;17.20;98.00;;;;;;5114680;28;20038;-67
2022/07/24 04:22:56;;;;;;;12.70;9.80;;;17.20;98.00;;;;;;5114027;28;20381;-68
2022/07/24 04:25:21;;;;;;;14.07;10.73;;;17.40;97.80;;;;;;5113747;27;20031;-68
2022/07/24 04:27:47;;;;;;;16.88;10.65;;;17.50;97.70;;;;;;5114900;28;20030;-68
2022/07/24 04:30:16;;;;;;;12.93;10.80;;;17.50;97.70;;;;;;5115028;28;20051;-68
2022/07/24 04:32:41;;;;;;;15.95;10.18;;;17.50;97.60;;;;;;5113750;28;20028;-68
2022/07/24 04:35:07;;;;;;;11.85;9.82;;;17.60;97.50;;;;;;5114876;28;20381;-67
2022/07/24 04:37:33;;;;;;;12.30;10.02;;;17.70;97.30;;;;;;5113143;28;20031;-68
2022/07/24 04:39:58;;;;;;;13.20;9.82;;;17.70;97.20;;;;;;5115057;28;20030;-68
2022/07/24 04:42:24;;;;;;;10.75;9.20;;;17.80;97.40;;;;;;5115687;27;20031;-67
2022/07/24 04:44:49;;;;;;;13.70;10.25;;;17.80;97.40;;;;;;5114317;28;20055;-67
2022/07/24 04:47:15;;;;;;;12.63;9.85;;;17.80;97.50;;;;;;5113025;28;20043;-67
2022/07/24 04:49:41;;;;;;;11.30;9.82;;;17.70;97.70;;;;;;5114893;28;20351;-68
2022/07/24 04:52:06;;;;;;;13.18;10.10;;;17.60;97.50;;;;;;5113718;28;20417;-67
2022/07/24 04:54:32;;;;;;;12.70;10.15;;;17.60;97.50;;;;;;5114251;27;20103;-68
2022/07/24 04:56:58;;;;;;;11.50;9.63;;;17.60;97.50;;;;;;5114306;28;20425;-68
2022/07/24 04:59:24;;;;;;;12.13;9.25;;;17.60;97.40;;;;;;5117147;28;20019;-68
2022/07/24 05:01:50;;;;;;;13.98;10.38;;;17.70;97.50;;;;;;5113079;28;20031;-68
2022/07/24 05:04:15;;;;;;;12.68;9.80;;;17.70;97.50;;;;;;5115156;28;20026;-68
2022/07/24 05:06:41;;;;;;;13.48;10.32;;;17.70;97.70;;;;;;5111339;28;20098;-67
2022/07/24 05:09:07;;;;;;;11.50;9.48;;;17.70;97.50;;;;;;5109881;27;20435;-68
2022/07/24 05:11:32;;;;;;;14.45;10.40;;;17.80;97.60;;;;;;5114196;27;20437;-68
2022/07/24 05:13:58;;;;;;;11.23;9.27;;;17.80;97.50;;;;;;5116329;28;20469;-68
2022/07/24 05:16:23;;;;;;;15.05;10.00;;;17.90;97.50;;;;;;5114118;28;20039;-67
2022/07/24 05:18:49;;;;;;;13.48;10.00;;;18.00;97.20;;;;;;5114968;28;20084;-67
2022/07/24 05:21:17;;;;;;;12.07;9.25;;;18.00;97.20;;;;;;5113673;28;20074;-67
2022/07/24 05:23:43;;;;;;;14.18;9.90;;;18.10;96.90;;;;;;5114270;28;20031;-68
2022/07/24 05:26:12;;;;;;;12.38;9.35;;;18.20;96.50;;;;;;5112359;28;20032;-68
2022/07/24 05:28:38;;;;;;;12.68;8.68;;;18.40;96.10;;;;;;5114300;28;20024;-68
2022/07/24 05:31:03;;;;;;;13.10;9.02;;;18.50;96.20;;;;;;5113534;28;20046;-68
2022/07/24 05:33:29;;;;;;;12.65;9.00;;;18.70;96.20;;;;;;5116543;28;20103;-68
2022/07/24 05:35:55;;;;;;;10.25;8.80;;;18.80;96.10;;;;;;5108884;28;20319;-68
2022/07/24 05:38:21;;;;;;;11.98;8.95;;;18.90;96.20;;;;;;5114183;28;20038;-67
2022/07/24 05:40:46;;;;;;;12.10;8.60;;;19.00;96.20;;;;;;5104850;28;20027;-68
2022/07/24 05:43:12;;;;;;;12.30;9.10;;;19.20;96.00;;;;;;5112294;28;20031;-68
2022/07/24 05:45:37;;;;;;;11.20;8.68;;;19.30;95.10;;;;;;5112499;28;20042;-68
2022/07/24 05:48:03;;;;;;;10.40;7.93;;;19.40;95.10;;;;;;5105352;28;20047;-68
2022/07/24 05:50:29;;;;;;;10.13;7.95;;;19.60;94.80;;;;;;5114842;28;20053;-68
2022/07/24 05:52:55;;;;;;;10.40;8.20;;;19.90;94.90;;;;;;5109454;28;21749;-68
2022/07/24 05:55:20;;;;;;;9.35;7.72;;;20.10;94.00;;;;;;5113337;28;20032;-68
2022/07/24 05:57:49;;;;;;;9.43;7.40;;;20.30;93.30;;;;;;5114397;28;20031;-67
2022/07/24 06:00:18;;;;;;;10.05;7.90;;;20.60;93.10;;;;;;5113616;28;20024;-66
2022/07/24 06:02:45;;;;;;;10.57;7.38;;;20.90;91.30;;;;;;5113977;28;20030;-66
2022/07/24 06:05:11;;;;;;;10.82;8.00;;;21.20;90.60;;;;;;5113201;28;20432;-67
2022/07/24 06:07:37;;;;;;;10.88;8.13;;;21.50;90.20;;;;;;5113315;28;20020;-67
2022/07/24 06:10:05;;;;;;;8.43;7.30;;;21.70;88.50;;;;;;5112001;28;20078;-68
2022/07/24 06:12:31;;;;;;;10.27;7.63;;;22.00;88.50;;;;;;5111381;28;20301;-68
2022/07/24 06:14:56;;;;;;;10.27;7.50;;;22.20;88.60;;;;;;5113438;28;20027;-68
2022/07/24 06:17:22;;;;;;;11.05;7.03;;;22.10;88.70;;;;;;5097978;28;21928;-68
2022/07/24 06:19:47;;;;;;;9.10;7.38;;;22.20;84.20;;;;;;5114403;28;20039;-68
2022/07/24 06:22:13;;;;;;;9.35;6.97;;;22.40;82.90;;;;;;5112697;27;20028;-68
2022/07/24 06:24:39;;;;;;;10.43;7.53;;;22.60;81.60;;;;;;5111701;27;20036;-68
2022/07/24 06:27:07;;;;;;;11.10;7.68;;;22.70;80.70;;;;;;5109095;27;20043;-68
2022/07/24 06:29:33;;;;;;;10.65;7.72;;;22.80;81.20;;;;;;5117027;27;20432;-68
2022/07/24 06:31:58;;;;;;;10.95;8.35;;;22.80;79.40;;;;;;5115357;27;20030;-68
2022/07/24 06:34:25;;;;;;;11.02;7.50;;;22.80;79.20;;;;;;5113779;28;20464;-68
2022/07/24 06:36:51;;;;;;;9.57;7.72;;;22.70;81.00;;;;;;5115826;28;20032;-69
2022/07/24 06:39:17;;;;;;;11.40;7.35;;;22.60;80.70;;;;;;5112269;27;20031;-68
2022/07/24 06:41:43;;;;;;;9.13;7.28;;;22.50;80.90;;;;;;5116906;27;20352;-68
2022/07/24 06:44:09;;;;;;;11.35;7.80;;;22.50;80.70;;;;;;5118514;27;20079;-68
2022/07/24 06:46:44;;;;;;;10.23;7.22;;;22.60;80.10;;;;;;5113710;27;20085;-68
2022/07/24 06:49:09;;;;;;;11.07;7.55;;;22.60;79.50;;;;;;5119011;27;20031;-68
2022/07/24 06:51:35;;;;;;;12.45;7.95;;;22.60;79.80;;;;;;5116264;27;20034;-68
2022/07/24 06:54:04;;;;;;;10.98;7.57;;;22.80;80.20;;;;;;5118807;28;20094;-68
2022/07/24 06:56:29;;;;;;;9.13;7.03;;;23.20;79.00;;;;;;5116685;28;20405;-68
2022/07/24 06:58:55;;;;;;;11.07;7.50;;;23.90;77.20;;;;;;5125225;27;20039;-67
2022/07/24 07:01:21;;;;;;;11.07;7.07;;;24.30;75.70;;;;;;5101814;27;20066;-68
2022/07/24 07:03:48;;;;;;;8.82;6.78;;;24.20;75.20;;;;;;5128623;27;20034;-68
2022/07/24 07:06:16;;;;;;;9.45;6.88;;;23.90;76.20;;;;;;5115511;27;20023;-68
2022/07/24 07:08:41;;;;;;;8.32;7.28;;;23.70;77.50;;;;;;5116712;27;20040;-68
2022/07/24 07:11:09;;;;;;;12.38;8.15;;;23.50;78.70;;;;;;5119161;27;20030;-68
2022/07/24 07:13:35;;;;;;;11.38;7.40;;;23.40;78.50;;;;;;5114018;28;20023;-68
2022/07/24 07:16:00;;;;;;;9.52;7.43;;;23.50;78.10;;;;;;5114378;27;20097;-68
2022/07/24 07:18:26;;;;;;;9.98;7.68;;;23.70;78.40;;;;;;5115032;28;20027;-68
2022/07/24 07:20:53;;;;;;;12.32;8.30;;;23.80;77.90;;;;;;5118125;27;20027;-69
2022/07/24 07:23:26;;;;;;;9.88;7.07;;;23.80;76.80;;;;;;5117260;27;20019;-68
2022/07/24 07:25:54;;;;;;;8.35;6.65;;;23.80;76.80;;;;;;5114573;28;20399;-68
2022/07/24 07:28:20;;;;;;;9.57;6.80;;;24.00;76.10;;;;;;5115935;27;20319;-69
2022/07/24 07:30:46;;;;;;;9.82;6.85;;;24.20;76.50;;;;;;5115450;27;20027;-68
2022/07/24 07:33:12;;;;;;;9.40;6.97;;;24.40;76.30;;;;;;5117942;28;20020;-68
2022/07/24 07:35:38;;;;;;;8.20;6.32;;;24.50;74.70;;;;;;5115757;27;20024;-68
2022/07/24 07:38:04;;;;;;;12.95;7.82;;;24.50;75.10;;;;;;5117454;27;20153;-68
2022/07/24 07:40:29;;;;;;;7.82;6.07;;;24.90;73.70;;;;;;5113185;27;20400;-68
2022/07/24 07:42:55;;;;;;;7.95;5.80;;;25.70;72.30;;;;;;5112146;27;20038;-68
2022/07/24 07:45:23;;;;;;;11.90;6.07;;;27.10;69.70;;;;;;5112585;28;20037;-68
2022/07/24 07:47:49;;;;;;;8.63;6.18;;;28.30;66.10;;;;;;5116848;28;20048;-68
2022/07/24 07:50:14;;;;;;;7.30;6.07;;;29.30;64.30;;;;;;5116524;27;20077;-68
2022/07/24 07:52:40;;;;;;;8.02;5.47;;;29.60;63.50;;;;;;5116981;28;20031;-68
2022/07/24 07:55:07;;;;;;;7.88;5.60;;;29.90;62.70;;;;;;5118859;27;20055;-68
2022/07/24 07:57:32;;;;;;;6.70;5.30;;;30.10;62.70;;;;;;5116142;27;20341;-68
2022/07/24 07:59:58;;;;;;;7.85;5.30;;;30.60;61.10;;;;;;5114744;27;20042;-68
2022/07/24 08:02:24;;;;;;;10.57;5.82;;;30.40;61.20;;;;;;5112105;28;20027;-68
2022/07/24 08:04:49;;;;;;;10.77;5.80;;;30.10;62.20;;;;;;5116648;27;20036;-68
2022/07/24 08:07:21;;;;;;;11.10;6.07;;;29.90;62.70;;;;;;5111190;27;20036;-68
2022/07/24 08:09:46;;;;;;;7.60;5.72;;;29.90;62.90;;;;;;5113103;27;20031;-68
2022/07/24 08:12:12;;;;;;;8.82;5.85;;;29.80;63.10;;;;;;5114218;27;20020;-69
2022/07/24 08:14:37;;;;;;;10.00;5.47;;;30.40;62.70;;;;;;5115602;28;20055;-68
2022/07/24 08:17:03;;;;;;;8.05;5.38;;;30.60;61.40;;;;;;5113093;28;20432;-68
2022/07/24 08:19:29;;;;;;;10.88;5.20;;;30.70;61.40;;;;;;5115350;27;20019;-68
2022/07/24 08:21:54;;;;;;;9.43;5.63;;;31.00;61.30;;;;;;5112794;28;20020;-68
2022/07/24 08:24:20;;;;;;;8.52;5.90;;;31.00;60.50;;;;;;5113585;28;20053;-68
2022/07/24 08:26:49;;;;;;;9.75;5.68;;;30.90;60.70;;;;;;5115421;28;20420;-68
2022/07/24 08:29:15;;;;;;;7.45;4.97;;;31.30;59.80;;;;;;5118179;27;20035;-67
2022/07/24 08:31:44;;;;;;;7.72;5.82;;;32.30;58.60;;;;;;5115720;27;20019;-68
2022/07/24 08:34:10;;;;;;;9.48;5.88;;;32.50;57.90;;;;;;5114508;27;20028;-67
2022/07/24 08:36:35;;;;;;;8.38;5.78;;;31.80;59.40;;;;;;5114211;27;20093;-67
2022/07/24 08:39:02;;;;;;;9.98;5.80;;;31.60;59.60;;;;;;5110626;27;20043;-67
2022/07/24 08:41:32;;;;;;;8.18;5.78;;;31.50;59.70;;;;;;5113692;28;20042;-68
2022/07/24 08:43:59;;;;;;;10.77;5.80;;;31.80;59.80;;;;;;5113052;28;20031;-68
2022/07/24 08:46:30;;;;;;;6.82;4.75;;;31.70;59.80;;;;;;5113895;28;20059;-68
2022/07/24 08:48:57;;;;;;;8.05;5.63;;;32.10;59.20;;;;;;5116490;27;20320;-68
2022/07/24 08:51:29;;;;;;;9.70;5.30;;;32.50;58.10;;;;;;5112608;28;20029;-67
2022/07/24 08:53:55;;;;;;;7.35;5.65;;;33.20;57.40;;;;;;5111685;28;20026;-66
2022/07/24 08:56:25;;;;;;;8.15;5.82;;;34.10;55.80;;;;;;5111841;27;20383;-65
2022/07/24 08:58:54;;;;;;;9.75;6.45;;;33.50;55.40;;;;;;5108430;28;20031;-65
2022/07/24 09:01:20;;;;;;;9.27;5.93;;;32.50;57.40;;;;;;5114020;27;20073;-66
2022/07/24 09:03:47;;;;;;;8.45;6.10;;;31.70;59.70;;;;;;5113865;28;20024;-67
2022/07/24 09:06:14;;;;;;;8.10;6.60;;;31.90;58.70;;;;;;5114590;28;20063;-68
2022/07/24 09:08:57;;;;;;;12.43;7.60;;;31.40;60.20;;;;;;5101778;28;20495;-67
2022/07/24 09:11:23;;;;;;;9.63;6.43;;;31.20;60.40;;;;;;5112858;28;20027;-68
2022/07/24 09:16:36;;;;;;;10.63;6.30;;;31.90;60.00;;;;;;5109082;28;20073;-68
2022/07/24 09:19:09;;;;;;;7.50;5.43;;;32.70;58.20;;;;;;5115112;28;20048;-68
2022/07/24 09:21:37;;;;;;;10.48;5.82;;;33.70;56.60;;;;;;5115429;27;20016;-67
2022/07/24 09:24:21;;;;;;;14.52;10.02;;;34.20;54.90;;;;;;5108234;28;20051;-68
2022/07/24 09:26:47;;;;;;;;;;;34.20;55.60;;;;;;5114533;28;20113;-68
2022/07/24 09:29:14;;;;;;;7.25;5.30;;;34.90;54.90;;;;;;5110354;28;19918;-68
2022/07/24 09:31:53;;;;;;;7.38;5.55;;;35.50;54.00;;;;;;5114796;28;20028;-68
2022/07/24 09:34:21;;;;;;;8.13;5.90;;;35.50;53.80;;;;;;5111230;28;20052;-68
2022/07/24 09:37:00;;;;;;;8.32;6.30;;;34.90;53.40;;;;;;5118033;28;20027;-68
2022/07/24 09:39:27;;;;;;;8.13;6.05;;;34.20;54.70;;;;;;5113669;28;20030;-68
2022/07/24 09:41:55;;;;;;;10.07;6.82;;;33.80;55.80;;;;;;5110257;28;20059;-68
2022/07/24 09:44:23;;;;;;;6.82;5.35;;;33.50;56.60;;;;;;5113147;28;20034;-68
2022/07/24 09:46:59;;;;;;;7.97;5.88;;;33.60;56.60;;;;;;5113853;28;20052;-68
2022/07/24 09:49:25;;;;;;;10.00;6.38;;;34.20;56.40;;;;;;5108279;28;20024;-67
2022/07/24 09:52:12;;;;;;;7.38;5.90;;;34.30;54.60;;;;;;5114026;28;20320;-67
2022/07/24 09:54:47;;;;;;;8.32;5.60;;;34.10;54.80;;;;;;5110317;28;20055;-67
2022/07/24 09:57:29;;;;;;;10.23;6.68;;;34.00;54.80;;;;;;5118826;28;20059;-67
2022/07/24 09:59:58;;;;;;;7.38;5.47;;;32.50;56.70;;;;;;5112185;27;20027;-68
2022/07/24 10:02:30;;;;;;;7.22;5.90;;;32.80;58.50;;;;;;5118894;27;20317;-68
2022/07/24 10:04:57;;;;;;;8.90;6.30;;;33.50;57.00;;;;;;5115674;28;20050;-68
2022/07/24 10:07:24;;;;;;;8.27;6.45;;;33.50;55.60;;;;;;5118659;27;20062;-68
2022/07/24 10:09:52;;;;;;;9.75;6.22;;;31.90;58.50;;;;;;5106777;27;20397;-67
2022/07/24 10:12:30;;;;;;;8.02;6.63;;;30.30;63.00;;;;;;5113675;27;20023;-67
2022/07/24 10:14:57;;;;;;;9.70;6.85;;;30.40;64.00;;;;;;5117853;27;20024;-67
2022/07/24 10:17:34;;;;;;;11.18;6.55;;;31.50;61.10;;;;;;5119156;27;20088;-68
2022/07/24 10:20:03;;;;;;;10.25;6.65;;;32.70;60.10;;;;;;5116934;27;20028;-67
2022/07/24 10:22:42;;;;;;;11.68;8.27;;;33.10;57.00;;;;;;5108389;28;20030;-67
2022/07/24 10:25:09;;;;;;;8.32;6.18;;;33.00;58.40;;;;;;5114865;27;20020;-68
2022/07/24 10:27:39;;;;;;;9.60;6.00;;;33.40;56.20;;;;;;5117239;27;20050;-68
2022/07/24 10:30:10;;;;;;;8.70;5.78;;;34.60;55.10;;;;;;5117325;28;20425;-68
2022/07/24 10:32:37;;;;;;;9.00;6.35;;;35.10;54.70;;;;;;5118677;27;20046;-68
2022/07/24 10:35:06;;;;;;;8.05;5.85;;;35.60;52.50;;;;;;5117184;28;20042;-68
2022/07/24 10:37:38;;;;;;;7.93;6.20;;;35.50;53.50;;;;;;5115112;27;20020;-68
2022/07/24 10:40:33;;;;;;;7.75;5.63;;;35.70;52.60;;;;;;5114573;27;20111;-68
2022/07/24 10:43:05;;;;;;;8.07;6.15;;;35.10;53.20;;;;;;5114717;27;20042;-68
2022/07/24 10:45:33;;;;;;;8.45;6.07;;;35.60;53.20;;;;;;5118302;28;20038;-68
2022/07/24 10:48:21;;;;;;;8.45;6.05;;;35.10;53.30;;;;;;5113612;27;20364;-68
2022/07/24 10:51:08;;;;;;;8.93;6.85;;;33.60;55.60;;;;;;5116953;27;20042;-68
2022/07/24 10:53:37;;;;;;;9.70;6.75;;;32.10;58.30;;;;;;5116685;27;20020;-68
2022/07/24 10:56:23;;;;;;;8.52;6.50;;;31.40;59.30;;;;;;5116739;28;20034;-68
2022/07/24 10:58:52;;;;;;;9.45;6.85;;;30.80;60.70;;;;;;5115892;27;20066;-68
2022/07/24 11:01:47;;;;;;;8.18;6.53;;;30.80;60.00;;;;;;5110652;27;20055;-68
2022/07/24 11:04:19;;;;;;;10.13;7.05;;;31.30;60.90;;;;;;5110932;27;20032;-68
2022/07/24 11:06:48;;;;;;;10.90;7.65;;;31.50;59.80;;;;;;5121884;27;20032;-68
2022/07/24 11:09:16;;;;;;;9.20;7.25;;;30.80;60.40;;;;;;5117997;27;20076;-68
2022/07/24 11:12:06;;;;;;;9.70;7.05;;;30.30;61.80;;;;;;5113667;27;20020;-67
2022/07/24 11:14:37;;;;;;;9.32;7.65;;;29.80;63.60;;;;;;5124431;27;20020;-73
2022/07/24 11:17:43;;;;;;;9.30;8.00;;;29.90;62.70;;;;;;5108220;27;20030;-71
2022/07/24 11:20:16;;;;;;;10.52;8.05;;;29.90;64.80;;;;;;5108584;28;20074;-67
2022/07/24 11:22:49;;;;;;;11.05;8.10;;;29.00;66.30;;;;;;5114523;28;20015;-67
2022/07/24 11:25:30;;;;;;;8.75;7.85;;;28.10;68.00;;;;;;5116944;27;20348;-71
2022/07/24 11:28:12;;;;;;;8.95;7.97;;;27.70;68.80;;;;;;5118452;28;20411;-66
2022/07/24 11:30:45;;;;;;;11.15;7.97;;;27.70;69.80;;;;;;5116956;27;20038;-67
2022/07/24 11:33:17;;;;;;;9.73;7.70;;;28.80;65.80;;;;;;5118208;27;20027;-67
2022/07/24 11:35:43;;;;;;;9.93;7.40;;;29.40;66.90;;;;;;5118895;27;20089;-67
2022/07/24 11:38:08;;;;;;;10.57;6.75;;;30.50;64.80;;;;;;5115846;28;20389;-67
2022/07/24 11:40:35;;;;;;;8.43;7.00;;;31.70;62.70;;;;;;5112822;27;20093;-67
2022/07/24 11:43:06;;;;;;;8.15;6.70;;;32.50;59.90;;;;;;5118028;28;20442;-68
2022/07/24 11:45:32;;;;;;;11.20;6.80;;;33.20;59.00;;;;;;5110934;27;20464;-66
2022/07/24 11:47:58;;;;;;;9.45;6.47;;;33.90;56.00;;;;;;5117986;28;20456;-65
2022/07/24 11:50:26;;;;;;;8.88;7.10;;;34.10;56.80;;;;;;5113260;28;20028;-65
2022/07/24 11:52:52;;;;;;;10.45;6.55;;;33.70;55.10;;;;;;5117946;28;20016;-66
2022/07/24 11:55:20;;;;;;;8.95;6.97;;;32.50;58.20;;;;;;5119042;27;20416;-66
2022/07/24 11:57:55;;;;;;;9.57;6.60;;;31.60;60.50;;;;;;5117546;28;20035;-67
2022/07/24 12:00:26;;;;;;;9.93;7.38;;;31.60;60.50;;;;;;5113611;27;20084;-67
2022/07/24 12:02:57;;;;;;;7.63;6.68;;;31.10;60.10;;;;;;5117936;27;20033;-67
2022/07/24 12:05:40;;;;;;;10.20;6.80;;;30.80;61.70;;;;;;5116877;28;20357;-67
2022/07/24 12:08:17;;;;;;;8.35;6.90;;;30.60;61.90;;;;;;5120108;27;20089;-67
2022/07/24 12:10:49;;;;;;;9.57;6.70;;;30.90;61.10;;;;;;5123239;27;20386;-67
2022/07/24 12:13:16;;;;;;;8.77;7.45;;;30.80;60.20;;;;;;5113253;27;20103;-67
2022/07/24 12:15:45;;;;;;;9.60;7.00;;;30.40;61.10;;;;;;5116447;28;20020;-68
2022/07/24 12:18:11;;;;;;;10.60;7.53;;;30.30;61.40;;;;;;5115539;27;20379;-67
2022/07/24 12:20:38;;;;;;;8.30;7.03;;;30.40;61.50;;;;;;5106123;28;20028;-67
2022/07/24 12:23:07;;;;;;;8.70;7.15;;;30.90;60.60;;;;;;5110419;27;20115;-68
2022/07/24 12:25:33;;;;;;;8.63;7.15;;;31.50;61.80;;;;;;5115360;27;20045;-67
2022/07/24 12:28:06;;;;;;;12.30;6.72;;;32.50;59.40;;;;;;5111247;27;20393;-67
2022/07/24 12:30:33;;;;;;;;;;;33.60;56.50;;;;;;5113201;27;20028;-67
2022/07/24 12:33:00;;;;;;;8.82;7.07;;;34.20;55.80;;;;;;5110493;27;20002;-67
2022/07/24 12:35:28;;;;;;;9.52;6.60;;;34.80;53.40;;;;;;5112091;27;20070;-68
2022/07/24 12:37:55;;;;;;;8.00;6.75;;;34.80;53.70;;;;;;5113413;27;20039;-67
2022/07/24 12:40:23;;;;;;;9.82;6.38;;;34.60;55.60;;;;;;5114149;28;20027;-67
2022/07/24 12:43:00;;;;;;;8.60;7.00;;;34.80;54.30;;;;;;5115773;28;20035;-67
2022/07/24 12:45:26;;;;;;;8.40;7.28;;;33.90;54.30;;;;;;5111998;28;20324;-67